• Join FlightAware (Why Join?)
  • Login
  • US Flag 
12:14AM EST


 

Airport Tracker/Info


-or-


 

Live Flight TrackerFlight Track Log ✈ KAL1338 ✈ 19-Aug-2013 ✈ RKJY / RSU - RKSS / GMP

Flight Track Log - Related Links

Times and Time Zones

All times are in EDT time to prevent confusion due to time zone crossing. See the KAL1338 flight status page for this flight to view local times or setup timezone preferences in your user account.

Time Position Orientation Groundspeed Altitude Reporting Facility
EDT Latitude Longitude Course Direction KTS MPH feet Rate Location/Type
05:09AM 34.9956 127.5696 346° North  Level Estimated
05:10AM 35.0735 127.5467 346° North  Level Estimated
05:11AM 35.1514 127.5237 346° North  Level Estimated
05:12AM 35.2293 127.5007 346° North  Level Estimated
05:13AM 35.3072 127.4776 346° North  Level Estimated
05:14AM 35.3851 127.4545 346° North  Level Estimated
05:15AM 35.4630 127.4314 346° North  Level Estimated
05:16AM 35.5409 127.4082 346° North  Level Estimated
05:17AM 35.6188 127.3850 346° North  Level Estimated
05:18AM 35.6966 127.3617 346° North  Level Estimated
05:19AM 35.7745 127.3383 346° North  Level Estimated
05:20AM 35.8524 127.3150 346° North  Level Estimated
05:21AM 35.9302 127.2916 346° North  Level Estimated
05:22AM 36.0081 127.2681 346° North  Level Estimated
05:23AM 36.0673 127.2502 346° North  Level Estimated
05:24AM 36.1265 127.2323 346° North  Level Estimated
05:25AM 36.1858 127.2144 346° North  Level Estimated
05:26AM 36.2450 127.1964 346° North  Level Estimated
05:27AM 36.3042 127.1784 346° North  Level Estimated
05:28AM 36.3634 127.1604 346° North  Level Estimated
05:29AM 36.4227 127.1423 346° North  Level Estimated
05:30AM 36.4819 127.1243 346° North  Level Estimated
05:31AM 36.5411 127.1061 346° North  Level Estimated
05:32AM 36.6003 127.0880 346° North  Level Estimated
05:33AM 36.6595 127.0699 346° North  Level Estimated
05:34AM 36.7187 127.0517 346° North  Level Estimated
05:35AM 36.7779 127.0335 346° North  Level Estimated
05:36AM 36.8371 127.0152 346° North  Level Estimated
05:37AM 36.8963 126.9969 346° North  Level Estimated
05:38AM 36.9555 126.9787 346° North  Level Estimated
05:39AM 37.0147 126.9603 346° North  Level Estimated
05:40AM 37.0739 126.9420 346° North  Level Estimated
05:41AM 37.1330 126.9236 346° North  Level Estimated
05:42AM 37.1922 126.9052 346° North  Level Estimated
05:43AM 37.2514 126.8867 346° North  Level Estimated
05:44AM 37.3106 126.8682 346° North  Level Estimated
05:45AM 37.3698 126.8497 346° North  Level Estimated
05:46AM 37.4289 126.8312 346° North  Level Estimated
05:47AM 37.4881 126.8127 346° North  Level Estimated
05:48AM 37.5473 126.7941 346° North  Level Estimated
05:49AM 37.5583 126.7906 346° North  Level Estimated
05:50AM 37.5583 126.7906 288° West  Level Estimated
05:51AM 37.5583 126.7906 288° West  Level Estimated
05:52AM 37.5583 126.7906 288° West  Level Estimated
05:53AM 37.5583 126.7906 288° West  Level Estimated
05:54AM 37.5583 126.7906 288° West  Level Estimated